SCIE/CCP METAR and TAF weather

Enter ICAO airport designator
Station Type Date Time Source
SCIE METAR 2019/08/22 04:00 UTC NOAA

SCIE 220400Z 21005KT 5000 BR NSC 08/08 Q1026


Station Type Date Time Source
SCIE Decoded METAR 2019/08/22 04:00 UTC NOAA

Station name not available
Aug 22, 2019 - 12:00 AM EDT / 2019.08.22 0400 UTC
Wind: from the SSW (210 degrees) at 6 MPH (5 KT):0
Visibility: 3 mile(s):0
Weather: mist
Temperature: 46 F (8 C)
Dew Point: 46 F (8 C)
Relative Humidity: 100%
Pressure (altimeter): 30.30 in. Hg (1026 hPa)
ob: SCIE 220400Z 21005KT 5000 BR NSC 08/08 Q1026
cycle: 4

Station Type Date Time Source
SCIE TAF 2019/08/21 18:03 UTC NOAA

TAF SCIE 211611Z 2118/2218 19004KT 9999 SCT010 BKN030 TX15/2118Z TN06/2211Z
BECMG 2118/2120 20004KT CAVOK
BECMG 2200/2202 17004KT
TEMPO 2206/2213 14006KT 5000 BR FEW003 BKN008

Example: see airport list